Time;durP1;ratioP1;P1;durP2;ratioP2;P2;SDS_P1;SDS_P2;PMS_P1;PMS_P2;Temp;Humidity;BMP_temperature;BMP_pressure;BME280_temperature;BME280_humidity;BME280_pressure;Samples;Min_cycle;Max_cycle;Signal;HPM_P1;HPM_P2
2023/05/10 00:00:46;;;;;;;15.52;9.88;;;;;;;18.53;44.10;92780.16;5026825;28;20483;-88
2023/05/10 00:03:12;;;;;;;16.70;9.93;;;;;;;18.54;44.22;92776.88;4993335;28;20532;-88
2023/05/10 00:05:37;;;;;;;13.00;9.65;;;;;;;18.53;43.84;92769.19;4994576;28;20091;-89
2023/05/10 00:08:03;;;;;;;12.55;9.02;;;;;;;18.55;43.97;92774.88;5009540;28;20033;-88
2023/05/10 00:10:28;;;;;;;13.75;9.20;;;;;;;18.53;44.03;92763.72;5009994;28;20354;-88
2023/05/10 00:12:54;;;;;;;14.40;8.95;;;;;;;18.52;44.06;92762.97;5011032;28;20427;-88
2023/05/10 00:15:19;;;;;;;11.82;8.13;;;;;;;18.51;43.98;92758.78;5012921;28;20037;-88
2023/05/10 00:17:44;;;;;;;13.93;9.68;;;;;;;18.49;44.24;92759.31;5038532;28;20435;-88
2023/05/10 00:20:10;;;;;;;12.93;9.07;;;;;;;18.52;43.79;92756.78;5006032;28;20057;-88
2023/05/10 00:22:36;;;;;;;10.77;8.10;;;;;;;18.50;43.92;92751.81;5007523;28;20045;-89
2023/05/10 00:25:01;;;;;;;12.10;8.57;;;;;;;18.51;43.85;92756.03;5046577;28;20041;-87
2023/05/10 00:27:27;;;;;;;11.80;7.70;;;;;;;18.55;44.03;92763.94;5012469;28;20102;-87
2023/05/10 00:29:52;;;;;;;10.75;7.97;;;;;;;18.51;43.91;92756.03;5046969;28;20045;-89
2023/05/10 00:32:17;;;;;;;12.73;8.85;;;;;;;18.48;44.08;92762.56;5005454;28;20090;-88
2023/05/10 00:34:43;;;;;;;13.10;8.43;;;;;;;18.49;44.27;92762.03;5013649;28;20106;-88
2023/05/10 00:37:08;;;;;;;11.00;7.85;;;;;;;18.49;44.27;92764.78;5029226;28;20424;-88
2023/05/10 00:39:34;;;;;;;12.32;8.02;;;;;;;18.49;44.05;92762.03;5029589;28;20484;-89
2023/05/10 00:42:00;;;;;;;12.70;8.75;;;;;;;18.47;43.77;92761.09;5000209;28;20042;-87
2023/05/10 00:44:26;;;;;;;12.55;8.38;;;;;;;18.47;44.23;92764.56;5009181;28;20156;-87
2023/05/10 00:46:51;;;;;;;11.07;8.15;;;;;;;18.50;44.08;92763.50;5006618;28;20038;-88
2023/05/10 00:49:17;;;;;;;11.63;8.30;;;;;;;18.55;43.89;92763.94;4991791;28;20052;-88
2023/05/10 00:51:44;;;;;;;12.50;8.43;;;;;;;18.49;43.95;92762.03;5009821;28;20041;-88
2023/05/10 00:54:11;;;;;;;11.20;8.10;;;;;;;18.49;44.16;92764.78;5008721;28;20037;-88
2023/05/10 00:56:37;;;;;;;10.50;8.15;;;;;;;18.46;44.11;92754.88;4997325;28;20228;-89
2023/05/10 00:59:03;;;;;;;11.02;8.07;;;;;;;18.46;44.08;92759.59;5029097;28;20055;-88
2023/05/10 01:01:28;;;;;;;12.15;8.38;;;;;;;18.48;43.85;92760.56;5011940;28;20068;-87
2023/05/10 01:03:54;;;;;;;10.77;7.88;;;;;;;18.49;43.85;92766.78;4994603;28;20381;-87
2023/05/10 01:06:20;;;;;;;8.80;7.22;;;;;;;18.47;43.63;92780.25;5009344;28;20076;-88
2023/05/10 01:08:45;;;;;;;11.68;8.55;;;;;;;18.49;44.31;92778.47;5025072;28;20112;-88
2023/05/10 01:11:10;;;;;;;11.43;8.05;;;;;;;18.49;44.09;92785.94;5025657;28;20115;-88
2023/05/10 01:13:37;;;;;;;14.50;9.15;;;;;;;18.46;44.00;92798.66;5045228;28;20573;-87
2023/05/10 01:16:03;;;;;;;12.38;8.13;;;;;;;18.49;44.05;92794.13;5009522;28;20469;-87
2023/05/10 01:18:36;;;;;;;13.07;8.88;;;;;;;18.47;44.04;92791.19;5009434;28;20526;-88
2023/05/10 01:21:19;;;;;;;10.23;7.75;;;;;;;18.46;44.12;92795.94;5009869;28;20117;-88
2023/05/10 01:24:05;;;;;;;10.65;7.65;;;;;;;18.48;44.11;92778.97;5027372;28;20403;-88
2023/05/10 01:27:01;;;;;;;9.57;7.57;;;;;;;18.46;43.93;92784.25;5045684;28;20564;-87
2023/05/10 01:29:29;;;;;;;10.25;7.38;;;;;;;18.45;44.08;92782.75;5045192;28;20115;-89
2023/05/10 01:32:09;;;;;;;12.00;7.65;;;;;;;18.45;44.17;92775.28;5043652;28;20037;-87
2023/05/10 01:34:48;;;;;;;9.98;7.65;;;;;;;18.45;43.87;92769.09;5026220;28;20393;-88
2023/05/10 01:37:17;;;;;;;11.82;7.82;;;;;;;18.44;44.07;92776.56;4993393;28;20034;-88
2023/05/10 01:40:15;;;;;;;9.35;6.93;;;;;;;18.44;44.34;92771.09;4992599;28;20142;-88
2023/05/10 01:42:50;;;;;;;10.13;7.80;;;;;;;18.44;44.05;92784.03;5008461;28;20042;-88
2023/05/10 01:45:27;;;;;;;9.95;7.00;;;;;;;18.44;44.17;92768.34;4988691;28;20037;-88
2023/05/10 01:48:06;;;;;;;9.50;7.18;;;;;;;18.45;43.94;92774.56;5009217;28;20391;-89
2023/05/10 01:50:31;;;;;;;11.73;8.13;;;;;;;18.45;44.01;92780.03;5005841;28;20409;-88
2023/05/10 01:52:57;;;;;;;10.48;7.03;;;;;;;18.43;44.13;92775.09;5008348;28;20041;-88
2023/05/10 01:55:25;;;;;;;11.00;7.45;;;;;;;18.42;43.92;92773.59;5009149;28;20076;-87
2023/05/10 01:58:02;;;;;;;8.57;6.30;;;;;;;18.43;44.28;92769.59;5019163;28;20045;-88
2023/05/10 02:00:28;;;;;;;10.75;7.22;;;;;;;18.43;43.94;92764.13;5013146;28;20044;-87
2023/05/10 02:02:54;;;;;;;11.77;7.53;;;;;;;18.45;43.85;92763.59;5012475;28;20033;-88
2023/05/10 02:05:19;;;;;;;8.65;5.97;;;;;;;18.42;44.29;92759.91;5012613;28;20416;-88
2023/05/10 02:07:44;;;;;;;9.20;6.97;;;;;;;18.43;44.08;92769.59;5028431;28;20049;-88
2023/05/10 02:10:10;;;;;;;9.10;7.18;;;;;;;18.39;44.13;92769.22;4992605;28;20049;-88
2023/05/10 02:12:36;;;;;;;7.70;6.10;;;;;;;18.46;44.21;92770.56;4996109;28;20050;-87
2023/05/10 02:15:02;;;;;;;9.82;6.95;;;;;;;18.44;43.79;92776.56;4995984;28;20045;-87
2023/05/10 02:17:28;;;;;;;8.45;6.82;;;;;;;18.41;44.14;92766.66;5029183;28;20037;-88
2023/05/10 02:19:54;;;;;;;9.85;7.03;;;;;;;18.43;44.05;92763.41;4991973;28;20037;-87
2023/05/10 02:22:19;;;;;;;10.02;7.05;;;;;;;18.42;43.87;92770.88;5015749;28;20040;-87
2023/05/10 02:24:44;;;;;;;8.75;6.43;;;;;;;18.39;43.80;92769.22;5015266;28;20045;-88
2023/05/10 02:27:10;;;;;;;9.00;6.88;;;;;;;18.44;44.12;92756.66;5015218;28;20040;-89
2023/05/10 02:29:35;;;;;;;8.77;6.18;;;;;;;18.43;44.09;92763.41;5031742;28;20033;-88
2023/05/10 02:32:01;;;;;;;9.73;7.07;;;;;;;18.42;43.93;92761.91;5031927;28;20029;-88
2023/05/10 02:34:26;;;;;;;9.35;6.70;;;;;;;18.41;44.17;92754.97;5012557;28;20147;-88
2023/05/10 02:36:52;;;;;;;8.90;6.50;;;;;;;18.41;43.82;92760.44;5028465;28;20360;-88
2023/05/10 02:39:18;;;;;;;8.35;6.05;;;;;;;18.43;43.89;92758.66;5027854;28;20532;-88
2023/05/10 02:41:44;;;;;;;11.23;6.75;;;;;;;18.44;44.04;92762.13;4992585;28;20044;-89
2023/05/10 02:44:09;;;;;;;10.48;7.45;;;;;;;18.44;44.29;92770.34;5027042;28;20041;-88
2023/05/10 02:46:38;;;;;;;8.50;6.70;;;;;;;18.40;44.23;92762.44;5011834;28;20049;-88
2023/05/10 02:49:03;;;;;;;9.65;7.15;;;;;;;18.42;43.77;92757.19;5025765;28;20040;-87
2023/05/10 02:51:31;;;;;;;9.30;6.45;;;;;;;18.42;43.83;92757.19;4993192;28;20046;-88
2023/05/10 02:53:57;;;;;;;10.50;6.40;;;;;;;18.40;44.08;92753.53;5009220;28;20042;-89
2023/05/10 02:56:28;;;;;;;9.63;6.55;;;;;;;18.44;44.11;92753.94;5011532;28;20044;-88
2023/05/10 02:58:54;;;;;;;8.55;6.07;;;;;;;18.41;44.22;92750.25;5008673;28;20041;-88
2023/05/10 03:01:20;;;;;;;8.63;6.15;;;;;;;18.42;43.94;92751.72;5011205;28;20442;-87
2023/05/10 03:03:45;;;;;;;7.30;6.13;;;;;;;18.42;43.82;92759.19;4995093;28;20095;-88
2023/05/10 03:06:10;;;;;;;8.30;6.00;;;;;;;18.43;43.67;92755.94;5027119;28;20087;-87
2023/05/10 03:08:36;;;;;;;8.57;6.22;;;;;;;18.43;43.78;92747.72;5010950;28;20037;-88
2023/05/10 03:11:04;;;;;;;7.50;5.82;;;;;;;18.41;43.71;92749.50;5011515;28;20045;-88
2023/05/10 03:13:38;;;;;;;8.27;6.35;;;;;;;18.42;43.59;92754.44;5026554;28;20386;-88
2023/05/10 03:16:07;;;;;;;6.30;5.57;;;;;;;18.41;43.82;92752.97;5011322;28;20033;-88
2023/05/10 03:18:44;;;;;;;8.48;6.20;;;;;;;18.39;44.01;92758.25;5027981;28;20044;-88
2023/05/10 03:21:12;;;;;;;9.70;6.13;;;;;;;18.40;44.15;92751.50;5009896;28;20083;-88
2023/05/10 03:23:43;;;;;;;8.77;6.35;;;;;;;18.38;44.00;92751.31;5011788;28;20052;-88
2023/05/10 03:26:08;;;;;;;6.72;5.05;;;;;;;18.41;43.84;92757.72;4994879;28;20116;-88
2023/05/10 03:28:34;;;;;;;8.73;6.30;;;;;;;18.38;43.63;92762.25;5010852;28;20408;-87
2023/05/10 03:31:00;;;;;;;9.10;6.57;;;;;;;18.37;43.72;92765.53;4995452;28;20041;-89
2023/05/10 03:33:25;;;;;;;10.35;5.43;;;;;;;18.39;43.87;92752.78;5011242;28;20118;-87
2023/05/10 03:35:51;;;;;;;29.67;9.20;;;;;;;18.46;43.84;92763.09;4987678;28;20076;-85
2023/05/10 03:38:16;;;;;;;39.88;25.40;;;;;;;18.45;43.80;92756.13;5019847;28;20045;-86
2023/05/10 03:40:42;;;;;;;27.75;14.00;;;;;;;18.60;43.80;92761.13;4985476;28;20056;-83
2023/05/10 03:43:07;;;;;;;8.52;6.00;;;;;;;18.56;43.63;92759.94;5010013;28;20104;-87
2023/05/10 03:45:34;;;;;;;9.65;6.70;;;;;;;18.53;43.90;92755.50;4989696;28;20041;-86
2023/05/10 03:47:59;;;;;;;22.90;13.25;;;;;;;18.67;43.82;92765.94;4990733;28;20041;-88
2023/05/10 03:50:26;;;;;;;15.57;10.90;;;;;;;18.61;43.37;92759.13;4947257;28;20039;-86
2023/05/10 03:52:51;;;;;;;14.32;8.98;;;;;;;18.70;43.40;92772.38;4952768;28;20312;-90
2023/05/10 03:55:17;;;;;;;207.25;37.60;;;;;;;18.75;43.13;92763.31;4952057;28;20813;-88
2023/05/10 03:57:42;;;;;;;60.33;17.42;;;;;;;18.73;40.88;92760.38;4927351;28;20047;-86
2023/05/10 04:00:08;;;;;;;25.98;7.57;;;;;;;18.71;40.37;92760.88;4928903;28;20810;-85
2023/05/10 04:02:34;;;;;;;66.43;17.20;;;;;;;18.67;39.39;92760.47;4959441;28;20046;-86
2023/05/10 04:04:59;;;;;;;61.65;24.70;;;;;;;18.69;39.59;92768.16;4960223;28;20449;-83
2023/05/10 04:07:25;;;;;;;57.05;22.80;;;;;;;18.56;38.68;92774.34;4942203;28;20083;-85
2023/05/10 04:09:50;;;;;;;51.70;19.65;;;;;;;18.64;38.53;92774.47;4971463;28;20078;-85
2023/05/10 04:12:16;;;;;;;87.45;29.85;;;;;;;18.51;38.26;92775.19;4936710;28;20406;-85
2023/05/10 04:14:41;;;;;;;81.78;34.28;;;;;;;18.49;38.39;92780.47;4959598;28;20077;-85
2023/05/10 04:17:07;;;;;;;85.43;32.35;;;;;;;18.44;38.81;92776.56;4976172;28;20160;-85
2023/05/10 04:19:32;;;;;;;50.78;21.17;;;;;;;18.19;38.93;92772.53;4974074;28;20038;-89
2023/05/10 04:21:58;;;;;;;47.30;13.60;;;;;;;18.03;39.28;92773.56;4982109;28;20053;-89
2023/05/10 04:24:23;;;;;;;41.65;19.95;;;;;;;17.83;39.81;92776.91;5026566;28;20049;-87
2023/05/10 04:26:49;;;;;;;66.47;35.80;;;;;;;17.72;39.74;92775.09;5010614;28;20053;-87
2023/05/10 04:29:14;;;;;;;66.05;25.05;;;;;;;17.63;39.73;92772.72;5027450;28;20459;-86
2023/05/10 04:31:40;;;;;;;76.72;21.75;;;;;;;17.61;40.15;92772.50;4990674;28;20074;-85
2023/05/10 04:34:06;;;;;;;59.72;16.50;;;;;;;17.36;40.84;92775.34;4989056;28;20040;-88
2023/05/10 04:36:33;;;;;;;31.05;10.82;;;;;;;17.28;41.12;92771.03;4992689;28;20513;-88
2023/05/10 04:38:59;;;;;;;32.95;9.50;;;;;;;17.19;41.45;92779.59;4992553;28;20060;-88
2023/05/10 04:41:25;;;;;;;22.88;7.03;;;;;;;17.04;41.05;92780.78;4990190;28;20407;-85
2023/05/10 04:43:50;;;;;;;18.33;5.32;;;;;;;16.95;41.31;92786.59;5006839;28;20057;-87
2023/05/10 04:46:16;;;;;;;17.88;4.95;;;;;;;16.92;41.20;92786.88;4989726;28;20121;-87
2023/05/10 04:48:42;;;;;;;21.90;7.32;;;;;;;16.73;40.96;92781.41;4994043;28;20033;-86
2023/05/10 04:51:08;;;;;;;25.52;10.40;;;;;;;16.70;41.31;92780.44;4987928;28;20050;-86
2023/05/10 04:53:33;;;;;;;60.03;14.57;;;;;;;16.90;41.69;92776.47;5006976;28;20034;-86
2023/05/10 04:55:59;;;;;;;75.90;27.75;;;;;;;16.91;41.19;92788.88;5008085;28;20029;-84
2023/05/10 04:58:24;;;;;;;75.63;31.30;;;;;;;17.02;41.44;92788.00;5002414;28;20060;-84
2023/05/10 05:00:50;;;;;;;116.63;40.22;;;;;;;17.04;41.25;92780.78;5005426;28;20057;-85
2023/05/10 05:03:15;;;;;;;106.75;49.70;;;;;;;17.17;41.42;92787.56;5019349;28;20045;-84
2023/05/10 05:05:41;;;;;;;94.85;41.85;;;;;;;17.32;41.25;92787.84;4992283;28;20477;-85
2023/05/10 05:08:06;;;;;;;104.75;39.53;;;;;;;17.30;41.21;92784.91;5002331;28;20046;-85
2023/05/10 05:10:32;;;;;;;107.45;40.72;;;;;;;17.47;40.91;92791.59;4987900;28;20045;-86
2023/05/10 05:12:57;;;;;;;115.55;38.28;;;;;;;17.51;41.05;92788.56;5017606;28;20753;-87
2023/05/10 05:15:23;;;;;;;90.28;38.03;;;;;;;17.48;40.65;92790.34;4987793;28;20111;-87
2023/05/10 05:17:48;;;;;;;94.82;40.00;;;;;;;17.59;41.77;92799.59;5013657;28;20091;-87
2023/05/10 05:20:14;;;;;;;103.65;39.60;;;;;;;17.65;41.56;92794.84;5005536;28;20062;-87
2023/05/10 05:22:39;;;;;;;129.55;40.88;;;;;;;17.69;41.12;92798.00;4990904;28;20595;-88
2023/05/10 05:25:08;;;;;;;95.40;36.10;;;;;;;17.72;41.37;92796.97;4989276;28;20045;-88
2023/05/10 05:27:34;;;;;;;85.72;38.88;;;;;;;17.69;40.56;92790.53;5001834;28;20064;-89
2023/05/10 05:29:59;;;;;;;92.95;33.78;;;;;;;17.76;41.82;92800.84;4998386;28;20038;-88
2023/05/10 05:32:25;;;;;;;92.00;39.65;;;;;;;17.77;41.46;92801.59;4995256;28;20044;-88
2023/05/10 05:34:51;;;;;;;80.78;38.05;;;;;;;17.78;40.96;92803.81;4998344;28;20565;-87
2023/05/10 05:37:19;;;;;;;73.55;34.97;;;;;;;17.86;41.35;92795.75;5008353;28;20045;-88
2023/05/10 05:39:45;;;;;;;89.90;43.45;;;;;;;17.82;40.87;92806.25;4984330;28;20049;-86
2023/05/10 05:42:10;;;;;;;94.88;49.45;;;;;;;17.87;41.68;92804.69;4995407;28;20041;-90
2023/05/10 05:44:36;;;;;;;177.43;87.00;;;;;;;17.90;41.02;92804.38;5026969;28;20037;-87
2023/05/10 05:47:01;;;;;;;141.23;73.30;;;;;;;17.96;41.96;92810.50;4994399;28;20144;-88
2023/05/10 05:49:27;;;;;;;153.45;74.53;;;;;;;17.94;41.70;92813.00;5012336;28;20112;-89
2023/05/10 05:51:52;;;;;;;193.77;90.50;;;;;;;18.02;42.10;92815.84;4991795;28;20042;-88
2023/05/10 05:54:18;;;;;;;225.30;108.80;;;;;;;18.02;41.71;92815.84;5010912;28;20044;-89
2023/05/10 05:56:44;;;;;;;231.18;113.22;;;;;;;18.05;41.61;92812.81;4996774;28;20087;-91
2023/05/10 05:59:12;;;;;;;239.90;125.32;;;;;;;18.07;41.51;92818.50;4993406;28;20038;-87
2023/05/10 06:01:41;;;;;;;229.40;124.40;;;;;;;18.11;41.59;92821.69;4995824;28;20045;-87
2023/05/10 06:04:06;;;;;;;248.68;135.07;;;;;;;18.15;42.01;92827.59;5008866;28;20037;-87
2023/05/10 06:06:32;;;;;;;248.38;128.70;;;;;;;18.20;42.05;92814.31;4996739;28;20052;-86
2023/05/10 06:08:57;;;;;;;223.50;123.13;;;;;;;18.23;42.56;92822.22;5025542;28;20041;-87
2023/05/10 06:11:23;;;;;;;253.80;141.15;;;;;;;18.28;42.15;92826.13;4999954;28;20041;-87
2023/05/10 06:13:49;;;;;;;259.85;150.25;;;;;;;18.32;42.11;92829.28;5009958;28;20192;-86
2023/05/10 06:16:14;;;;;;;266.88;150.55;;;;;;;18.30;42.58;92829.81;5043219;28;20411;-86
2023/05/10 06:18:40;;;;;;;245.88;143.05;;;;;;;18.32;41.73;92832.75;5014429;28;20053;-86
2023/05/10 06:21:05;;;;;;;238.48;142.80;;;;;;;18.34;42.22;92835.72;4994843;28;20042;-87
2023/05/10 06:23:31;;;;;;;249.95;146.50;;;;;;;18.32;42.32;92840.22;5027872;28;20076;-86
2023/05/10 06:25:56;;;;;;;262.73;153.20;;;;;;;18.37;41.73;92839.41;5006267;28;20123;-89
2023/05/10 06:28:31;;;;;;;255.68;152.50;;;;;;;18.28;41.95;92837.06;4997826;28;20045;-91
2023/05/10 06:30:56;;;;;;;262.23;148.80;;;;;;;18.32;41.98;92837.50;5017268;28;20515;-88
2023/05/10 06:33:21;;;;;;;235.43;139.27;;;;;;;18.29;41.84;92844.00;4992881;28;20084;-91
2023/05/10 06:35:47;;;;;;;246.57;140.50;;;;;;;18.28;42.38;92848.00;5031431;28;20025;-87
2023/05/10 06:38:13;;;;;;;251.35;146.00;;;;;;;18.27;41.73;92850.00;5018888;28;20038;-88
2023/05/10 06:40:42;;;;;;;258.95;145.50;;;;;;;18.29;41.55;92852.97;4990819;28;20048;-84
2023/05/10 06:43:07;;;;;;;287.20;162.25;;;;;;;18.26;41.64;92856.72;4989842;28;20099;-86
2023/05/10 06:45:33;;;;;;;300.92;168.02;;;;;;;18.30;41.26;92861.91;5030932;28;20037;-87
2023/05/10 06:47:58;;;;;;;266.77;152.45;;;;;;;18.31;42.13;92855.16;4998533;28;20459;-89
2023/05/10 06:50:24;;;;;;;339.15;215.05;;;;;;;18.33;42.26;92850.66;5017978;28;20578;-87
2023/05/10 06:52:49;;;;;;;270.55;155.10;;;;;;;18.32;42.89;92854.66;5010915;28;20041;-90
2023/05/10 06:55:15;;;;;;;361.25;210.15;;;;;;;18.35;41.91;92858.34;4998300;28;20045;-87
2023/05/10 06:57:40;;;;;;;305.00;181.15;;;;;;;18.36;42.60;92855.09;5029570;28;20073;-90
2023/05/10 07:00:06;;;;;;;322.70;187.57;;;;;;;18.39;42.59;92847.81;5014236;28;20100;-87
2023/05/10 07:02:32;;;;;;;328.17;184.95;;;;;;;18.38;43.00;92855.31;4989414;28;20080;-88
2023/05/10 07:04:57;;;;;;;376.50;222.48;;;;;;;18.34;41.84;92852.13;5015399;28;20523;-90
2023/05/10 07:07:23;;;;;;;334.75;183.65;;;;;;;18.40;42.04;92863.69;4989219;28;20050;-90
2023/05/10 07:09:49;;;;;;;297.65;161.77;;;;;;;18.36;43.39;92871.50;5021258;28;20049;-90
2023/05/10 07:12:15;;;;;;;182.20;104.35;;;;;;;18.25;44.49;92870.94;5022958;28;20037;-88
2023/05/10 07:14:40;;;;;;;147.13;75.85;;;;;;;18.18;45.66;92868.84;4998773;28;20077;-88
2023/05/10 07:17:06;;;;;;;129.98;67.68;;;;;;;18.14;46.02;92880.06;5014420;28;20306;-90
2023/05/10 07:19:32;;;;;;;150.95;74.55;;;;;;;18.19;46.05;92879.22;5002898;28;20034;-90
2023/05/10 07:21:58;;;;;;;167.70;80.82;;;;;;;18.21;45.87;92871.25;4999094;28;20116;-88
2023/05/10 07:24:24;;;;;;;192.23;92.68;;;;;;;18.26;45.80;92886.09;4995694;28;20045;-89
2023/05/10 07:26:57;;;;;;;224.50;108.10;;;;;;;18.30;44.62;92881.06;5001346;28;20033;-89
2023/05/10 07:29:22;;;;;;;242.82;114.07;;;;;;;18.29;44.61;92877.59;5007085;28;20082;-89
2023/05/10 07:31:48;;;;;;;258.70;132.57;;;;;;;18.31;44.73;92882.53;4999474;28;20494;-87
2023/05/10 07:34:13;;;;;;;237.70;126.72;;;;;;;18.27;44.60;92882.84;4995986;28;20049;-90
2023/05/10 07:36:39;;;;;;;248.23;134.68;;;;;;;18.35;44.97;92878.22;4998732;28;20049;-88
2023/05/10 07:39:05;;;;;;;273.02;138.98;;;;;;;18.28;44.07;92883.56;5021846;28;20025;-91
2023/05/10 07:41:30;;;;;;;278.98;144.40;;;;;;;18.31;43.81;92877.06;5014716;28;20114;-90
2023/05/10 07:43:56;;;;;;;246.52;124.78;;;;;;;18.34;44.43;92881.50;5001970;28;20094;-87
2023/05/10 07:46:21;;;;;;;240.68;124.45;;;;;;;18.32;43.89;92879.28;5002918;28;20034;-89
2023/05/10 07:48:48;;;;;;;274.70;140.63;;;;;;;18.38;43.70;92884.66;5007961;28;20073;-88
2023/05/10 07:51:13;;;;;;;240.07;122.15;;;;;;;18.38;44.16;92879.94;4999199;28;20057;-88
2023/05/10 07:53:41;;;;;;;237.20;132.65;;;;;;;18.34;44.03;92882.22;5031378;28;20124;-91
2023/05/10 07:56:32;;;;;;;227.20;122.30;;;;;;;18.36;44.03;92890.66;5000331;28;20118;-88
2023/05/10 07:59:00;;;;;;;;;;;;;;;18.38;43.72;92885.41;5026003;28;20208;-87
2023/05/10 08:01:25;;;;;;;212.98;106.95;;;;;;;18.34;44.23;92889.69;5018480;28;19979;-88
2023/05/10 08:03:51;;;;;;;224.38;114.70;;;;;;;18.33;43.99;92888.97;4999664;28;20068;-90
2023/05/10 08:06:18;;;;;;;176.70;90.30;;;;;;;18.38;44.19;92892.88;4980197;28;20042;-89
2023/05/10 08:08:49;;;;;;;201.23;115.05;;;;;;;18.38;43.75;92896.34;4975356;28;20046;-90
2023/05/10 08:11:17;;;;;;;229.27;119.75;;;;;;;18.38;43.83;92895.59;4975804;28;20159;-89
2023/05/10 08:13:42;;;;;;;181.68;103.78;;;;;;;18.43;44.40;92892.03;4954350;28;20129;-86
2023/05/10 08:16:08;;;;;;;193.02;105.40;;;;;;;18.43;45.26;92898.22;4962250;28;20050;-87
2023/05/10 08:18:33;;;;;;;210.68;125.47;;;;;;;18.38;44.09;92896.34;4954195;28;20050;-88
2023/05/10 08:20:59;;;;;;;209.75;121.30;;;;;;;18.43;44.29;92894.75;4969024;28;20052;-92
2023/05/10 08:23:24;;;;;;;219.98;124.60;;;;;;;18.42;44.65;92893.28;4948304;28;20188;-87
2023/05/10 08:25:50;;;;;;;229.43;126.07;;;;;;;18.43;45.35;92895.50;4966017;28;20039;-90
2023/05/10 08:28:15;;;;;;;283.30;159.50;;;;;;;18.45;44.93;92897.72;4957847;28;20090;-88
2023/05/10 08:30:41;;;;;;;300.63;167.75;;;;;;;18.44;43.91;92901.72;4933326;28;20235;-87
2023/05/10 08:33:06;;;;;;;300.17;167.55;;;;;;;18.41;44.48;92894.53;4926040;29;20051;-87
2023/05/10 08:35:33;;;;;;;303.02;169.27;;;;;;;18.41;43.64;92903.50;4924994;29;20046;-88
2023/05/10 08:37:58;;;;;;;278.80;164.35;;;;;;;18.45;44.44;92898.44;4949220;28;20159;-88
2023/05/10 08:40:23;;;;;;;267.60;154.43;;;;;;;18.43;45.02;92900.22;4947743;28;20386;-87
2023/05/10 08:42:56;;;;;;;236.63;129.38;;;;;;;18.47;45.48;92906.13;4931356;28;20042;-85
2023/05/10 08:45:23;;;;;;;263.17;142.13;;;;;;;18.48;45.39;92910.34;4935508;28;20130;-85
2023/05/10 08:47:48;;;;;;;253.93;137.85;;;;;;;18.52;45.76;92913.53;4911734;28;20063;-88
2023/05/10 08:50:14;;;;;;;263.02;149.73;;;;;;;18.48;44.75;92911.09;4932155;28;20155;-88
2023/05/10 08:52:41;;;;;;;218.70;122.55;;;;;;;18.51;45.37;92909.31;4916920;29;20065;-88
2023/05/10 08:55:07;;;;;;;251.35;137.55;;;;;;;18.51;44.54;92909.31;4916878;28;20484;-89
2023/05/10 08:57:32;;;;;;;339.73;186.27;;;;;;;18.45;44.10;92916.88;4951020;28;20171;-89
2023/05/10 09:00:00;;;;;;;328.42;160.45;;;;;;;18.46;45.28;92919.09;4950313;28;20065;-87
2023/05/10 09:02:26;;;;;;;321.52;163.95;;;;;;;18.52;44.54;92921.00;4977425;28;20121;-90
2023/05/10 09:04:51;;;;;;;283.38;150.13;;;;;;;18.48;44.82;92921.31;4976649;28;20045;-87
2023/05/10 09:07:19;;;;;;;292.83;159.40;;;;;;;18.50;44.24;92927.72;4964004;28;20054;-88
2023/05/10 09:09:45;;;;;;;242.60;127.10;;;;;;;18.53;44.67;92925.94;4962363;28;20462;-89
2023/05/10 09:12:11;;;;;;;259.08;149.05;;;;;;;18.48;43.97;92922.03;4969491;28;20139;-89
2023/05/10 09:14:36;;;;;;;276.63;151.40;;;;;;;18.52;44.11;92929.22;4972072;28;20048;-89
2023/05/10 09:17:02;;;;;;;278.67;155.43;;;;;;;18.53;44.17;92925.22;4987027;28;20045;-89
2023/05/10 09:19:27;;;;;;;294.00;152.57;;;;;;;18.50;44.90;92929.72;5002652;28;20072;-89
2023/05/10 09:21:53;;;;;;;290.10;143.63;;;;;;;18.52;45.49;92924.47;5010248;28;20034;-89
2023/05/10 09:24:29;;;;;;;297.58;147.38;;;;;;;18.48;44.81;92930.25;5015672;28;20048;-91
2023/05/10 09:26:55;;;;;;;295.65;159.55;;;;;;;18.56;45.27;92930.38;5002191;28;20046;-91
2023/05/10 09:29:21;;;;;;;243.98;127.18;;;;;;;18.57;45.74;92928.38;4991712;28;20091;-90
2023/05/10 09:31:50;;;;;;;281.30;153.63;;;;;;;18.52;45.69;92929.94;5001236;28;20044;-92
2023/05/10 09:34:44;;;;;;;282.50;152.02;;;;;;;18.56;45.44;92929.66;4988897;28;20129;-92
2023/05/10 09:37:11;;;;;;;270.25;148.77;;;;;;;18.57;45.81;92931.84;4979066;28;20505;-92
2023/05/10 09:39:37;;;;;;;316.63;164.98;;;;;;;18.54;45.10;92930.16;4980490;28;20120;-89
2023/05/10 09:42:08;;;;;;;328.38;182.30;;;;;;;18.56;44.64;92926.91;5001774;28;20198;-88
2023/05/10 09:44:34;;;;;;;321.42;180.73;;;;;;;18.55;45.16;92934.38;5021290;28;20061;-89
2023/05/10 09:47:00;;;;;;;290.98;160.05;;;;;;;18.55;45.90;92930.91;4994319;28;20038;-89
2023/05/10 09:49:26;;;;;;;323.95;178.10;;;;;;;18.54;44.73;92934.91;4996266;28;20041;-90
2023/05/10 09:52:04;;;;;;;296.10;169.93;;;;;;;18.59;45.10;92925.88;4989152;28;20033;-88
2023/05/10 09:54:29;;;;;;;279.02;155.52;;;;;;;18.58;46.01;92929.84;4991803;28;20103;-88
2023/05/10 09:56:55;;;;;;;297.08;166.90;;;;;;;18.60;45.78;92925.38;4995428;28;20037;-91
2023/05/10 09:59:20;;;;;;;334.38;178.57;;;;;;;18.59;45.55;92928.59;4998604;28;20744;-90
2023/05/10 10:01:50;;;;;;;300.55;166.63;;;;;;;18.57;45.49;92933.84;5023198;28;20099;-87
2023/05/10 10:04:15;;;;;;;368.70;181.18;;;;;;;18.57;45.15;92937.34;4991594;28;20516;-89
2023/05/10 10:06:41;;;;;;;307.52;165.45;;;;;;;18.55;45.37;92930.91;5007441;28;20152;-88
2023/05/10 10:09:07;;;;;;;322.67;179.95;;;;;;;18.57;45.67;92931.84;4984010;28;20060;-87
2023/05/10 10:11:34;;;;;;;296.58;174.52;;;;;;;18.54;45.24;92930.16;5008755;28;20115;-88
2023/05/10 10:14:00;;;;;;;295.60;169.60;;;;;;;18.52;45.18;92926.47;5009487;28;20096;-90
2023/05/10 10:16:26;;;;;;;289.42;170.70;;;;;;;18.56;46.88;92929.66;4988711;28;20041;-90
2023/05/10 10:18:52;;;;;;;298.05;180.25;;;;;;;18.56;46.51;92933.13;4992646;28;20049;-88
2023/05/10 10:21:17;;;;;;;331.00;204.80;;;;;;;18.53;45.77;92925.22;4992558;28;20061;-88
2023/05/10 10:23:43;;;;;;;339.45;213.10;;;;;;;18.58;46.33;92924.38;4996432;28;20049;-88
2023/05/10 10:26:08;;;;;;;312.10;195.43;;;;;;;18.60;46.25;92922.63;5002373;28;20503;-88
2023/05/10 10:28:43;;;;;;;313.17;197.52;;;;;;;18.56;45.95;92922.16;4987598;28;20081;-88
2023/05/10 10:31:25;;;;;;;303.77;191.18;;;;;;;18.56;46.22;92924.91;5028241;28;20491;-88
2023/05/10 10:34:03;;;;;;;319.25;197.60;;;;;;;18.56;45.63;92929.66;5030534;28;20507;-88
2023/05/10 10:36:30;;;;;;;321.10;204.38;;;;;;;18.63;47.11;92927.03;5012824;28;20500;-88
2023/05/10 10:38:59;;;;;;;312.25;198.48;;;;;;;18.62;46.51;92924.84;5028282;28;20095;-88
2023/05/10 10:41:35;;;;;;;321.70;201.60;;;;;;;18.54;45.12;92929.44;5027780;28;20095;-88
2023/05/10 10:44:25;;;;;;;277.45;175.32;;;;;;;18.57;46.01;92936.59;4995749;28;20127;-88
2023/05/10 10:47:22;;;;;;;292.15;177.98;;;;;;;18.58;46.57;92930.59;5029856;28;20045;-88
2023/05/10 10:49:48;;;;;;;321.80;196.15;;;;;;;18.61;45.33;92924.09;5038453;28;20090;-87
2023/05/10 10:52:32;;;;;;;251.15;148.88;;;;;;;18.60;46.24;92921.91;5022133;28;20334;-88
2023/05/10 10:55:18;;;;;;;217.48;135.57;;;;;;;18.58;46.17;92922.38;5008926;28;20038;-88
2023/05/10 10:57:47;;;;;;;227.13;140.77;;;;;;;18.60;46.17;92930.09;5006028;28;20045;-88
2023/05/10 11:00:34;;;;;;;239.73;145.02;;;;;;;18.62;46.59;92920.09;5009852;28;20108;-89
2023/05/10 11:03:04;;;;;;;259.65;146.60;;;;;;;18.62;46.31;92927.59;5011413;28;20046;-91
2023/05/10 11:05:48;;;;;;;245.05;139.65;;;;;;;18.60;45.85;92930.09;5011856;28;20516;-88
2023/05/10 11:08:18;;;;;;;212.95;115.32;;;;;;;18.60;46.75;92930.09;4995286;28;20148;-90
2023/05/10 11:10:52;;;;;;;217.23;123.05;;;;;;;18.64;46.53;92920.31;5009616;28;20120;-90
2023/05/10 11:13:29;;;;;;;252.93;149.90;;;;;;;18.61;45.00;92935.06;4992741;28;20037;-89
2023/05/10 11:15:56;;;;;;;167.63;94.63;;;;;;;18.58;47.81;92933.34;5022195;28;20046;-93